Airfield :
LOGIN :

Register | Disclaimer

   EN    FR    IT 

 










Legend :    VFR   Marginal VFR   IFR   Intensive IFR   Very Intensive IFR
Visi :
Ceiling :
>= 8 km
>= 3000ft
5 to 8 km
1000 to 3000 ft
1500m to 5 km
500 to 1000 ft
800 to 1500m
200 to 500 ft
< 800m
< 200 ft
Symbols :   Thunderstorms  Fog  Heavy snow  Heavy precipitations  Wind > 20 kt
SIGMETs :     Misc.  Thunderstorms  Icing  Turbulence  Mountain Waves  Volcanic Ashes






- Airport Elevation : 228 ft
- IATA code : OPO


LPPR - Porto Fr. Sa Carneiro

CURRENT METAR :
  • 290830Z 21007KT 180V240 9999 SCT010 BKN020 17/15 Q1010

EXPIRED METARs :
  • 290800Z 20007KT 170V230 9999 SCT010 BKN020 17/16 Q1010
  • 290730Z 20007KT 9999 FEW010 SCT015 BKN018 17/15 Q1010
  • 290700Z 20007KT 9999 FEW010 BKN015 BKN020 17/16 Q1010
  • 290630Z 19008KT 9999 SCT008 BKN011 17/16 Q1010
  • 290600Z 20009KT 170V230 9999 BKN008 OVC011 17/16 Q1010

TAF TAF LPPR
Valid from the 29 at 06:00 until the 30 at 06:00 UTC


290500Z 2906/3006 21008KT 9999 BKN008
BECMG 2907/2910 BKN015
BECMG 2912/2915 25010KT SCT025
BECMG 2918/2921 VRB02KT BKN012
BECMG 3000/3003 19007KT



MET'MAP, your aeronautical weather chart ! - Copyright ORBIFLY December 2007 - Disclaimer

ORBIFLY MET'MAP TEAM :

Programming & Development : Alexandra Zaïnal
Original concept : Baudouin d'Aumeries
Technical & hardware support : Manuel Goepfert
Assistance : Marc-Olivier Méhu

Contact : metmap@orbifly.com




SOURCES & CREDITS :

   NOAA